LPB weather

Comandante Luis Piedrabuena Airport
Comandante Luis Piedrabuena, Santa Cruz Province, Argentina

Public forecast

Using degrees Celsius for public forecast. Weather courtesy of forecast.io.

Closest aviation weather report (METAR) to Comandante Luis Piedrabuena Airport

Report is more than 6 hours old.

Closest report is Capitan D Daniel Vazquez Airport, 60.9 nm (112.8 km) NE. Retrieved 2019/10/14 13:15 UTC (5 days ago):

SAWJ 141315Z 16005KT CAVOK 12/M07 Q1032

Closest aviation forecast (TAF) to Comandante Luis Piedrabuena Airport

Forecast is more than 12 hours old.

Closest forecast is Santa Cruz Airport, 14.5 nm (26.8 km) E. Retrieved 2015/06/09 00:21 UTC (4 years ago):

TAF SARP 082300Z 0900/0924 00000KT CAVOK TX31/0918Z TN2 SES0023 090012 GG SAEZYMXX SAOCYEYE SAZNYMYX 090012 SABMYMYX SAAG SAWU 090000 METAR SAWU 090000Z 29010KT CAVOK 00/M01 Q1005